메인 페이지
METAR-TAF:

METAR-TAF

공항 :

웰링턴 국제공항

웰링턴, 뉴질랜드

위도: 41-20S, 경도: 174-48E, 고도: 12m

현재 날씨관측

예보는 26분 전, 20:30시(UTC)에 발표되었습니다.
북북서10kt북서풍과 풍을 오가는
온도 12°C
습도 82%
기압 987 hPa
시정 10km 이상

METAR: NZWN 202030Z AUTO 34010KT 310V010 9999 BKN020/// BKN032/// 12/09 Q0987 TEMPO 6000 SHRA

시각: 08:56 (20:56 UTC)

예보

예보는 2 시간 37분 전, 18:19시(UTC)에 발표되었습니다.
예보 대상 시간: 20일 18시부터 21일 18시까지 (UTC)
15kt, 순간 최대 풍속 25kt
시정 10km 이상
고도 3000ft 상공 구름 많음
약한소나기
전환 중
20일 18시부터 20일 20시까지 (UTC)
18kt, 순간 최대 풍속 35kt
일시적
20일 18시부터 20일 21시까지 (UTC)
시정: 5000m
고도 2000ft 상공 구름 조금, 적란운.
소나기
일시적
21일 06시부터 21일 12시까지 (UTC)
시정: 3000m
고도 2000ft 상공 구름 조금, 적란운.
강한소나기, 우박
전환 중
21일 07시부터 21일 09시까지 (UTC)
북서15kt

TAF: NZWN 201819Z 2018/2118 35015G25KT 9999 -SHRA BKN030 BECMG 2018/2020 35018G35KT TEMPO 2018/2021 5000 SHRA FEW020CB TEMPO 2106/2112 3000 +SHRAGR FEW020CB BECMG 2107/2109 32015KT

4,000개 이상의 공항 관측 자료 및 예보 (METAR 및 TAF 보고).

지도상에서 검색 가능한 기상관측소가 노란 점과 빨간 점으로 표시되어 있습니다.

기상관측소 명을 보려면 표시 위로 마우스를 이동하세요.

날씨 관측과 예보를 보려면 클릭하세요.

지도 변경 : 확대하려면 엑스 표시가 있는 녹색 버튼, 축소하려면 빼기 표시가 있는 녹색 버튼, 다음 페이지의 지도를 보려면 녹색 화살표를 클릭하세요.


METAR-TAF: